createdAt,value
2023-03-12T00:00:28.049Z,16.73
2023-03-12T00:02:58.757Z,13.95
2023-03-12T00:05:28.800Z,12.77
2023-03-12T00:07:59.637Z,14.68
2023-03-12T00:10:31.872Z,13.07
2023-03-12T00:12:58.574Z,13.38
2023-03-12T00:15:25.556Z,16.75
2023-03-12T00:17:52.255Z,14.82
2023-03-12T00:20:19.877Z,13.30
2023-03-12T00:22:46.586Z,10.50
2023-03-12T00:25:15.709Z,14.13
2023-03-12T00:27:45.307Z,11.65
2023-03-12T00:30:12.429Z,20.17
2023-03-12T00:32:39.151Z,12.55
2023-03-12T00:35:06.587Z,13.05
2023-03-12T00:37:33.648Z,14.77
2023-03-12T00:40:01.803Z,10.48
2023-03-12T00:42:31.288Z,11.65
2023-03-12T00:45:00.197Z,10.82
2023-03-12T00:47:29.318Z,10.05
2023-03-12T00:49:58.446Z,10.13
2023-03-12T00:52:25.086Z,11.30
2023-03-12T00:54:58.116Z,8.45
2023-03-12T00:57:25.256Z,11.48
2023-03-12T00:59:51.885Z,14.13
2023-03-12T01:02:20.778Z,9.75
2023-03-12T01:04:49.884Z,10.90
2023-03-12T01:07:16.500Z,13.00
2023-03-12T01:09:47.568Z,10.50
2023-03-12T01:12:14.388Z,9.20
2023-03-12T01:14:41.057Z,10.80
2023-03-12T01:17:09.920Z,13.18
2023-03-12T01:19:36.586Z,11.40
2023-03-12T01:22:03.311Z,15.10
2023-03-12T01:24:30.038Z,14.05
2023-03-12T01:26:58.849Z,11.18
2023-03-12T01:29:28.017Z,14.68
2023-03-12T01:31:57.069Z,9.80
2023-03-12T01:34:23.707Z,12.15
2023-03-12T01:36:50.611Z,13.45
2023-03-12T01:39:19.681Z,14.27
2023-03-12T01:41:46.361Z,10.35
2023-03-12T01:44:14.685Z,11.43
2023-03-12T01:46:43.393Z,12.98
2023-03-12T01:49:34.514Z,10.32
2023-03-12T01:52:09.010Z,11.80
2023-03-12T01:54:44.479Z,8.80
2023-03-12T01:57:18.425Z,11.93
2023-03-12T01:59:49.750Z,13.15
2023-03-12T02:02:18.547Z,10.93
2023-03-12T02:04:47.648Z,8.88
2023-03-12T02:07:19.460Z,10.82
2023-03-12T02:09:49.344Z,9.35
2023-03-12T02:12:20.415Z,10.60
2023-03-12T02:14:49.552Z,8.70
2023-03-12T02:17:16.306Z,11.77
2023-03-12T02:20:13.398Z,11.07
2023-03-12T02:22:48.991Z,12.38
2023-03-12T02:25:21.555Z,9.30
2023-03-12T02:27:48.603Z,9.93
2023-03-12T02:30:19.600Z,8.85
2023-03-12T02:32:48.428Z,9.60
2023-03-12T02:35:16.477Z,10.55
2023-03-12T02:37:48.672Z,8.32
2023-03-12T02:40:36.757Z,13.13
2023-03-12T02:43:07.027Z,9.52
2023-03-12T02:45:34.980Z,11.63
2023-03-12T02:48:02.624Z,10.50
2023-03-12T02:50:31.461Z,8.70
2023-03-12T02:52:58.068Z,10.55
2023-03-12T02:55:24.699Z,11.13
2023-03-12T02:57:51.370Z,9.45
2023-03-12T03:00:22.863Z,7.40
2023-03-12T03:02:49.489Z,10.68
2023-03-12T03:05:20.297Z,10.82
2023-03-12T03:07:47.045Z,6.88
2023-03-12T03:10:15.477Z,8.13
2023-03-12T03:12:42.155Z,13.15
2023-03-12T03:15:13.644Z,11.95
2023-03-12T03:17:40.269Z,10.35
2023-03-12T03:20:10.983Z,8.57
2023-03-12T03:22:40.780Z,8.80
2023-03-12T03:25:11.220Z,10.50
2023-03-12T03:27:37.994Z,8.00
2023-03-12T03:30:05.815Z,10.60
2023-03-12T03:32:32.508Z,8.15
2023-03-12T03:35:00.344Z,9.50
2023-03-12T03:37:26.976Z,8.63
2023-03-12T03:39:56.071Z,8.35
2023-03-12T03:42:24.857Z,9.60
2023-03-12T03:44:51.477Z,9.75
2023-03-12T03:47:21.348Z,9.00
2023-03-12T03:49:50.306Z,11.52
2023-03-12T03:52:17.132Z,5.80
2023-03-12T03:54:46.323Z,7.78
2023-03-12T03:57:15.450Z,7.55
2023-03-12T03:59:42.088Z,8.50
2023-03-12T04:02:10.937Z,7.85
2023-03-12T04:04:37.600Z,7.68
2023-03-12T04:07:06.447Z,8.65
2023-03-12T04:09:40.324Z,7.88
2023-03-12T04:12:07.228Z,6.85
2023-03-12T04:14:38.730Z,7.68
2023-03-12T04:17:05.386Z,7.25
2023-03-12T04:19:34.478Z,9.27
2023-03-12T04:22:03.816Z,6.20
2023-03-12T04:24:30.570Z,13.60
2023-03-12T04:26:57.344Z,8.48
2023-03-12T04:29:27.179Z,8.00
2023-03-12T04:31:54.252Z,7.28
2023-03-12T04:34:21.161Z,9.40
2023-03-12T04:36:50.072Z,5.90
2023-03-12T04:39:20.869Z,7.80
2023-03-12T04:41:47.776Z,8.70
2023-03-12T04:44:15.134Z,6.55
2023-03-12T04:46:44.694Z,8.77
2023-03-12T04:49:13.726Z,8.15
2023-03-12T04:51:40.374Z,12.98
2023-03-12T04:54:07.032Z,7.80
2023-03-12T04:56:36.114Z,10.48
2023-03-12T04:59:05.064Z,8.35
2023-03-12T05:01:37.507Z,8.73
2023-03-12T05:04:06.942Z,7.55
2023-03-12T05:06:36.295Z,8.27
2023-03-12T05:09:05.647Z,8.55
2023-03-12T05:11:34.521Z,6.75
2023-03-12T05:14:03.332Z,9.23
2023-03-12T05:16:30.112Z,5.78
2023-03-12T05:18:56.793Z,8.02
2023-03-12T05:21:25.667Z,8.25
2023-03-12T05:23:54.863Z,5.35
2023-03-12T05:26:25.228Z,10.43
2023-03-12T05:28:52.339Z,8.60
2023-03-12T05:31:19.806Z,5.65
2023-03-12T05:33:47.145Z,8.00
2023-03-12T05:36:14.443Z,10.80
2023-03-12T05:38:44.067Z,9.07
2023-03-12T05:41:21.635Z,6.85
2023-03-12T05:43:50.708Z,10.07
2023-03-12T05:46:19.623Z,12.65
2023-03-12T05:48:46.581Z,8.18
2023-03-12T05:51:16.012Z,12.35
2023-03-12T05:53:42.658Z,7.13
2023-03-12T05:56:17.220Z,10.25
2023-03-12T05:58:44.598Z,10.45
2023-03-12T06:01:23.008Z,8.75
2023-03-12T06:03:50.184Z,10.70
2023-03-12T06:06:19.642Z,15.10
2023-03-12T06:08:48.943Z,6.97
2023-03-12T06:11:18.154Z,9.43
2023-03-12T06:13:47.098Z,7.65
2023-03-12T06:16:19.993Z,10.18
2023-03-12T06:18:49.413Z,7.15
2023-03-12T06:21:18.920Z,11.25
2023-03-12T06:23:48.637Z,8.98
2023-03-12T06:26:16.509Z,10.73
2023-03-12T06:28:43.344Z,8.98
2023-03-12T06:31:12.240Z,8.02
2023-03-12T06:33:39.407Z,5.95
2023-03-12T06:36:09.348Z,10.15
2023-03-12T06:38:41.149Z,8.18
2023-03-12T06:41:17.669Z,7.47
2023-03-12T06:43:47.458Z,10.82
2023-03-12T06:46:19.479Z,7.38
2023-03-12T06:48:46.600Z,8.13
2023-03-12T06:51:15.519Z,6.88
2023-03-12T06:53:42.745Z,9.00
2023-03-12T06:56:10.089Z,9.57
2023-03-12T06:58:36.819Z,10.57
2023-03-12T07:01:06.574Z,9.40
2023-03-12T07:03:35.993Z,8.48
2023-03-12T07:06:06.044Z,9.20
2023-03-12T07:08:32.709Z,13.38
2023-03-12T07:11:05.315Z,10.80
2023-03-12T07:13:31.959Z,8.55
2023-03-12T07:15:58.630Z,6.80
2023-03-12T07:18:28.073Z,7.20
2023-03-12T07:20:57.223Z,7.57
2023-03-12T07:23:24.365Z,8.98
2023-03-12T07:25:52.008Z,11.23
2023-03-12T07:28:19.850Z,7.97
2023-03-12T07:30:50.507Z,8.23
2023-03-12T07:33:21.769Z,7.97
2023-03-12T07:35:53.357Z,6.93
2023-03-12T07:38:20.228Z,4.72
2023-03-12T07:41:00.272Z,8.85
2023-03-12T07:43:29.586Z,10.25
2023-03-12T07:45:56.358Z,10.05
2023-03-12T07:48:23.398Z,10.30
2023-03-12T07:50:52.332Z,5.80
2023-03-12T07:53:19.122Z,10.85
2023-03-12T07:55:48.098Z,12.95
2023-03-12T07:58:18.364Z,4.85
2023-03-12T08:00:49.594Z,7.07
2023-03-12T08:03:17.172Z,10.60
2023-03-12T08:05:44.021Z,6.05
2023-03-12T08:08:10.790Z,10.85
2023-03-12T08:10:38.148Z,9.02
2023-03-12T08:13:04.849Z,5.80
2023-03-12T08:15:31.722Z,8.05
2023-03-12T08:18:01.410Z,8.55
2023-03-12T08:20:28.188Z,6.20
2023-03-12T08:22:59.442Z,11.07
2023-03-12T08:25:26.388Z,7.57
2023-03-12T08:27:57.772Z,10.30
2023-03-12T08:30:29.834Z,7.30
2023-03-12T08:32:59.904Z,11.00
2023-03-12T08:35:26.723Z,10.15
2023-03-12T08:37:53.404Z,9.20
2023-03-12T08:40:22.456Z,6.05
2023-03-12T08:42:49.093Z,8.55
2023-03-12T08:45:16.133Z,6.75
2023-03-12T08:47:44.278Z,10.55
2023-03-12T08:50:16.415Z,8.43
2023-03-12T08:52:43.980Z,9.23
2023-03-12T08:55:14.128Z,8.48
2023-03-12T08:57:43.357Z,10.30
2023-03-12T09:00:15.060Z,9.02
2023-03-12T09:02:46.852Z,13.80
2023-03-12T09:05:18.254Z,12.93
2023-03-12T09:07:45.004Z,12.93
2023-03-12T09:10:14.217Z,12.85
2023-03-12T09:12:40.899Z,10.73
2023-03-12T09:15:09.054Z,10.10
2023-03-12T09:17:35.856Z,8.15
2023-03-12T09:20:05.675Z,9.27
2023-03-12T09:22:36.792Z,11.02
2023-03-12T09:25:08.729Z,13.73
2023-03-12T09:27:49.892Z,13.77
2023-03-12T09:30:20.008Z,10.05
2023-03-12T09:32:47.831Z,8.93
2023-03-12T09:35:15.728Z,9.45
2023-03-12T09:37:47.528Z,12.13
2023-03-12T09:40:21.792Z,12.75
2023-03-12T09:42:56.854Z,9.00
2023-03-12T09:45:26.215Z,11.98
2023-03-12T09:48:00.858Z,11.60
2023-03-12T09:50:43.213Z,14.57
2023-03-12T09:53:32.876Z,11.23
2023-03-12T09:56:02.190Z,17.55
2023-03-12T09:58:33.030Z,24.20
2023-03-12T10:01:38.387Z,40.95
2023-03-12T10:04:28.917Z,26.75
2023-03-12T10:07:18.551Z,14.23
2023-03-12T10:10:18.329Z,12.90
2023-03-12T10:13:02.815Z,12.07
2023-03-12T10:16:08.263Z,13.73
2023-03-12T10:19:00.951Z,12.07
2023-03-12T10:21:50.096Z,13.23
2023-03-12T10:24:25.232Z,12.93
2023-03-12T10:26:54.983Z,10.95
2023-03-12T10:29:32.582Z,13.77
2023-03-12T10:32:11.385Z,29.30
2023-03-12T10:34:54.929Z,36.53
2023-03-12T10:37:42.869Z,30.65
2023-03-12T10:40:39.002Z,41.67
2023-03-12T10:43:10.551Z,24.75
2023-03-12T10:46:04.608Z,33.13
2023-03-12T10:48:33.805Z,40.92
2023-03-12T10:51:07.180Z,35.83
2023-03-12T10:53:44.610Z,43.65
2023-03-12T10:56:13.028Z,34.47
2023-03-12T10:58:41.123Z,54.40
2023-03-12T11:01:28.304Z,37.38
2023-03-12T11:04:14.921Z,16.35
2023-03-12T11:07:01.530Z,24.48
2023-03-12T11:09:30.424Z,15.07
2023-03-12T11:11:59.347Z,19.40
2023-03-12T11:14:31.278Z,20.75
2023-03-12T11:17:24.135Z,27.25
2023-03-12T11:19:51.695Z,23.95
2023-03-12T11:22:34.899Z,22.90
2023-03-12T11:25:05.922Z,28.83
2023-03-12T11:27:35.494Z,24.58
2023-03-12T11:30:06.472Z,20.95
2023-03-12T11:32:43.542Z,23.88
2023-03-12T11:35:15.769Z,25.38
2023-03-12T11:38:22.396Z,23.02
2023-03-12T11:41:07.808Z,24.73
2023-03-12T11:43:44.199Z,24.58
2023-03-12T11:46:23.808Z,19.45
2023-03-12T11:48:59.895Z,26.20
2023-03-12T11:51:32.205Z,24.30
2023-03-12T11:54:01.936Z,22.15
2023-03-12T11:56:34.591Z,18.00
2023-03-12T11:59:19.921Z,21.77
2023-03-12T12:02:34.729Z,26.67
2023-03-12T12:05:01.302Z,22.73
2023-03-12T12:07:48.406Z,25.65
2023-03-12T12:10:36.973Z,14.35
2023-03-12T12:13:10.674Z,15.32
2023-03-12T12:15:58.942Z,20.27
2023-03-12T12:18:53.592Z,20.95
2023-03-12T12:21:20.145Z,20.45
2023-03-12T12:23:56.853Z,16.02
2023-03-12T12:26:37.951Z,22.25
2023-03-12T12:29:23.161Z,20.30
2023-03-12T12:32:00.628Z,15.20
2023-03-12T12:35:08.277Z,18.13
2023-03-12T12:37:34.869Z,21.10
2023-03-12T12:40:24.199Z,19.00
2023-03-12T12:43:10.734Z,14.07
2023-03-12T12:45:42.345Z,16.77
2023-03-12T12:48:16.919Z,15.90
2023-03-12T12:50:50.308Z,17.45
2023-03-12T12:53:50.212Z,16.23
2023-03-12T12:56:25.370Z,15.80
2023-03-12T12:59:04.808Z,13.75
2023-03-12T13:01:36.455Z,17.58
2023-03-12T13:04:20.674Z,14.32
2023-03-12T13:07:01.520Z,19.30
2023-03-12T13:09:52.320Z,17.98
2023-03-12T13:12:25.148Z,13.68
2023-03-12T13:14:53.780Z,17.38
2023-03-12T13:17:25.699Z,21.05
2023-03-12T13:20:13.866Z,18.58
2023-03-12T13:23:19.416Z,14.38
2023-03-12T13:25:54.749Z,17.50
2023-03-12T13:28:30.201Z,14.23
2023-03-12T13:33:50.452Z,22.88
2023-03-12T13:36:17.145Z,20.63
2023-03-12T13:39:06.774Z,23.30
2023-03-12T13:41:38.043Z,19.05
2023-03-12T13:44:23.272Z,20.55
2023-03-12T13:47:03.146Z,19.23
2023-03-12T13:49:40.114Z,19.45
2023-03-12T13:52:17.907Z,22.02
2023-03-12T13:55:07.864Z,21.70
2023-03-12T13:57:43.180Z,15.13
2023-03-12T14:00:27.758Z,18.73
2023-03-12T14:03:16.646Z,19.27
2023-03-12T14:05:58.450Z,15.45
2023-03-12T14:08:51.927Z,24.55
2023-03-12T14:11:42.741Z,18.58
2023-03-12T14:14:24.134Z,22.35
2023-03-12T14:17:00.543Z,22.83
2023-03-12T14:19:33.801Z,14.25
2023-03-12T14:22:04.321Z,16.90
2023-03-12T14:24:41.481Z,20.05
2023-03-12T14:27:18.838Z,26.95
2023-03-12T14:29:54.385Z,20.02
2023-03-12T14:35:02.854Z,17.55
2023-03-12T14:37:39.532Z,23.55
2023-03-12T14:40:19.946Z,20.60
2023-03-12T14:42:47.395Z,18.55
2023-03-12T14:45:19.543Z,15.02
2023-03-12T14:47:54.788Z,21.70
2023-03-12T14:50:32.222Z,18.92
2023-03-12T14:53:20.310Z,20.92
2023-03-12T14:55:46.978Z,18.85
2023-03-12T14:58:18.826Z,23.40
2023-03-12T15:00:59.757Z,23.15
2023-03-12T15:03:27.940Z,20.27
2023-03-12T15:05:58.340Z,23.77
2023-03-12T15:08:25.784Z,25.25
2023-03-12T15:10:56.992Z,19.25
2023-03-12T15:13:26.069Z,22.45
2023-03-12T15:15:54.752Z,25.20
2023-03-12T15:18:26.485Z,28.40
2023-03-12T15:20:57.296Z,28.70
2023-03-12T15:23:25.567Z,25.10
2023-03-12T15:26:17.993Z,25.52
2023-03-12T15:29:03.046Z,27.73
2023-03-12T15:32:12.986Z,22.38
2023-03-12T15:34:42.447Z,25.52
2023-03-12T15:37:32.518Z,20.95
2023-03-12T15:40:02.073Z,25.40
2023-03-12T15:42:46.195Z,19.38
2023-03-12T15:45:40.276Z,22.75
2023-03-12T15:48:20.897Z,25.73
2023-03-12T15:50:47.652Z,21.63
2023-03-12T15:53:16.682Z,21.38
2023-03-12T15:55:54.175Z,26.70
2023-03-12T15:58:29.708Z,20.25
2023-03-12T16:03:33.204Z,15.18
2023-03-12T16:06:02.134Z,23.65
2023-03-12T16:08:51.668Z,22.67
2023-03-12T16:11:24.497Z,20.08
2023-03-12T16:14:04.312Z,18.10
2023-03-12T16:16:31.046Z,24.25
2023-03-12T16:18:57.794Z,18.15
2023-03-12T16:21:24.600Z,23.40
2023-03-12T16:23:53.829Z,21.75
2023-03-12T16:26:20.597Z,19.67
2023-03-12T16:28:48.125Z,26.65
2023-03-12T16:31:16.185Z,20.35
2023-03-12T16:33:43.888Z,24.15
2023-03-12T16:36:19.657Z,21.38
2023-03-12T16:38:48.714Z,29.67
2023-03-12T16:41:17.740Z,30.58
2023-03-12T16:43:51.251Z,25.73
2023-03-12T16:46:20.443Z,20.80
2023-03-12T16:48:54.684Z,16.27
2023-03-12T16:51:25.100Z,20.50
2023-03-12T16:54:08.475Z,24.63
2023-03-12T16:56:41.020Z,23.40
2023-03-12T16:59:26.347Z,29.08
2023-03-12T17:01:53.653Z,22.13
2023-03-12T17:04:20.542Z,25.60
2023-03-12T17:06:47.178Z,24.13
2023-03-12T17:09:16.342Z,21.92
2023-03-12T17:11:43.573Z,25.52
2023-03-12T17:14:20.406Z,21.20
2023-03-12T17:16:50.159Z,19.73
2023-03-12T17:19:16.863Z,23.88
2023-03-12T17:21:44.198Z,22.48
2023-03-12T17:24:13.839Z,27.35
2023-03-12T17:26:41.364Z,27.55
2023-03-12T17:29:10.323Z,26.42
2023-03-12T17:31:37.619Z,25.33
2023-03-12T17:34:04.900Z,26.02
2023-03-12T17:36:31.578Z,24.38
2023-03-12T17:38:58.279Z,23.63
2023-03-12T17:41:27.596Z,19.00
2023-03-12T17:43:55.148Z,22.48
2023-03-12T17:46:24.398Z,19.50
2023-03-12T17:48:53.724Z,20.50
2023-03-12T17:51:23.058Z,22.73
2023-03-12T17:53:54.502Z,25.25
2023-03-12T17:56:23.465Z,24.50
2023-03-12T17:58:50.204Z,22.15
2023-03-12T18:01:19.571Z,23.10
2023-03-12T18:03:50.019Z,21.90
2023-03-12T18:06:19.946Z,27.63
2023-03-12T18:08:49.145Z,24.50
2023-03-12T18:11:15.888Z,20.10
2023-03-12T18:13:42.520Z,23.65
2023-03-12T18:16:11.776Z,23.48
2023-03-12T18:18:42.997Z,23.65
2023-03-12T18:21:11.851Z,26.35
2023-03-12T18:23:38.601Z,23.92
2023-03-12T18:26:07.811Z,24.52
2023-03-12T18:28:34.499Z,22.95
2023-03-12T18:31:03.980Z,30.13
2023-03-12T18:33:34.875Z,24.85
2023-03-12T18:36:06.327Z,22.25
2023-03-12T18:38:33.061Z,22.13
2023-03-12T18:41:04.973Z,22.48
2023-03-12T18:43:35.188Z,25.80
2023-03-12T18:46:05.157Z,18.95
2023-03-12T18:48:32.140Z,24.88
2023-03-12T18:50:58.837Z,27.23
2023-03-12T18:53:28.762Z,23.88
2023-03-12T18:55:58.876Z,25.10
2023-03-12T18:58:28.966Z,17.17
2023-03-12T19:00:57.162Z,22.38
2023-03-12T19:03:30.577Z,24.20
2023-03-12T19:06:05.555Z,20.42
2023-03-12T19:08:32.754Z,21.02
2023-03-12T19:10:59.710Z,28.23
2023-03-12T19:13:26.473Z,18.92
2023-03-12T19:16:01.359Z,23.70
2023-03-12T19:18:29.042Z,26.33
2023-03-12T19:20:56.162Z,23.48
2023-03-12T19:23:23.476Z,18.48
2023-03-12T19:25:52.489Z,25.25
2023-03-12T19:28:19.161Z,24.42
2023-03-12T19:30:52.680Z,24.80
2023-03-12T19:33:19.407Z,16.30
2023-03-12T19:35:53.357Z,21.80
2023-03-12T19:38:22.695Z,18.52
2023-03-12T19:40:56.334Z,23.75
2023-03-12T19:43:23.686Z,22.38
2023-03-12T19:45:53.235Z,24.05
2023-03-12T19:48:23.408Z,21.00
2023-03-12T19:50:51.531Z,22.25
2023-03-12T19:53:19.571Z,24.23
2023-03-12T19:55:49.548Z,28.83
2023-03-12T19:58:17.197Z,29.35
2023-03-12T20:00:44.217Z,24.70
2023-03-12T20:03:13.479Z,25.42
2023-03-12T20:05:44.328Z,23.23
2023-03-12T20:08:11.856Z,21.67
2023-03-12T20:10:41.293Z,21.05
2023-03-12T20:13:12.708Z,28.38
2023-03-12T20:15:40.231Z,31.85
2023-03-12T20:18:06.900Z,21.95
2023-03-12T20:20:33.711Z,25.27
2023-03-12T20:23:02.654Z,21.50
2023-03-12T20:25:31.572Z,25.95
2023-03-12T20:27:58.487Z,18.40
2023-03-12T20:30:25.158Z,23.10
2023-03-12T20:32:54.122Z,20.58
2023-03-12T20:35:20.951Z,23.55
2023-03-12T20:37:47.674Z,21.65
2023-03-12T20:40:16.692Z,26.48
2023-03-12T20:42:45.591Z,21.58
2023-03-12T20:45:12.420Z,27.80
2023-03-12T20:47:41.287Z,29.52
2023-03-12T20:50:11.130Z,32.53
2023-03-12T20:52:37.894Z,18.02
2023-03-12T20:55:05.546Z,24.58
2023-03-12T20:57:34.745Z,23.48
2023-03-12T21:00:01.425Z,23.83
2023-03-12T21:02:35.275Z,30.02
2023-03-12T21:05:02.001Z,24.80
2023-03-12T21:07:33.712Z,25.02
2023-03-12T21:10:02.848Z,17.70
2023-03-12T21:12:29.480Z,28.30
2023-03-12T21:15:05.792Z,21.27
2023-03-12T21:17:40.382Z,28.15
2023-03-12T21:20:13.367Z,25.38
2023-03-12T21:22:46.748Z,22.00
2023-03-12T21:25:16.047Z,21.13
2023-03-12T21:27:50.630Z,21.17
2023-03-12T21:30:19.115Z,23.00
2023-03-12T21:32:45.810Z,27.42
2023-03-12T21:35:14.923Z,27.60
2023-03-12T21:37:41.620Z,23.00
2023-03-12T21:40:09.294Z,21.70
2023-03-12T21:42:38.601Z,21.83
2023-03-12T21:45:08.841Z,23.38
2023-03-12T21:47:39.458Z,21.90
2023-03-12T21:50:08.768Z,24.38
2023-03-12T21:52:41.256Z,20.23
2023-03-12T21:55:12.409Z,25.17
2023-03-12T21:57:41.835Z,24.23
2023-03-12T22:00:14.043Z,20.50
2023-03-12T22:02:44.640Z,26.45
2023-03-12T22:05:12.161Z,24.52
2023-03-12T22:07:39.170Z,17.27
2023-03-12T22:10:07.380Z,19.85
2023-03-12T22:12:34.046Z,22.20
2023-03-12T22:15:00.733Z,24.60
2023-03-12T22:17:27.736Z,20.33
2023-03-12T22:19:56.872Z,26.67
2023-03-12T22:22:23.545Z,19.25
2023-03-12T22:24:50.201Z,18.38
2023-03-12T22:27:16.841Z,20.10
2023-03-12T22:29:45.707Z,23.17
2023-03-12T22:32:12.389Z,17.15
2023-03-12T22:34:41.282Z,20.30
2023-03-12T22:37:07.957Z,18.60
2023-03-12T22:39:37.137Z,16.60
2023-03-12T22:42:03.993Z,22.38
2023-03-12T22:44:33.077Z,20.27
2023-03-12T22:46:59.793Z,26.30
2023-03-12T22:49:26.512Z,19.02
2023-03-12T22:51:53.137Z,19.35
2023-03-12T22:54:22.493Z,20.33
2023-03-12T22:56:49.153Z,18.83
2023-03-12T22:59:18.023Z,23.85
2023-03-12T23:01:44.717Z,15.60
2023-03-12T23:04:11.579Z,14.30
2023-03-12T23:06:43.859Z,14.90
2023-03-12T23:09:13.257Z,18.73
2023-03-12T23:11:42.300Z,15.85
2023-03-12T23:14:08.916Z,23.90
2023-03-12T23:16:35.698Z,17.67
2023-03-12T23:19:02.422Z,15.55
2023-03-12T23:21:29.143Z,11.43
2023-03-12T23:23:57.916Z,21.90
2023-03-12T23:26:28.498Z,21.55
2023-03-12T23:28:58.882Z,20.08
2023-03-12T23:31:28.306Z,17.10
2023-03-12T23:33:56.226Z,19.73
2023-03-12T23:36:25.579Z,21.73
2023-03-12T23:38:54.504Z,17.98
2023-03-12T23:41:26.515Z,15.48
2023-03-12T23:43:53.355Z,20.90
2023-03-12T23:46:20.713Z,20.35
2023-03-12T23:48:50.563Z,18.10
2023-03-12T23:51:21.128Z,22.60
2023-03-12T23:53:50.567Z,19.13
2023-03-12T23:56:24.075Z,18.83
2023-03-12T23:58:53.676Z,19.60
